sensor_id;sensor_type;location;lat;lon;timestamp;temperature;humidity
66629;DHT22;53532;53.084;6.352;2022-07-29T00:00:57;15.10;99.90
66629;DHT22;53532;53.084;6.352;2022-07-29T00:03:23;15.10;99.90
66629;DHT22;53532;53.084;6.352;2022-07-29T00:05:50;15.10;99.90
66629;DHT22;53532;53.084;6.352;2022-07-29T00:08:18;15.10;99.90
66629;DHT22;53532;53.084;6.352;2022-07-29T00:10:44;15.10;99.90
66629;DHT22;53532;53.084;6.352;2022-07-29T00:13:10;15.10;99.90
66629;DHT22;53532;53.084;6.352;2022-07-29T00:15:36;15.20;99.90
66629;DHT22;53532;53.084;6.352;2022-07-29T00:18:02;15.20;99.90
66629;DHT22;53532;53.084;6.352;2022-07-29T00:20:28;15.20;99.90
66629;DHT22;53532;53.084;6.352;2022-07-29T00:22:55;15.20;99.90
66629;DHT22;53532;53.084;6.352;2022-07-29T00:25:21;15.10;99.90
66629;DHT22;53532;53.084;6.352;2022-07-29T00:27:47;15.20;99.90
66629;DHT22;53532;53.084;6.352;2022-07-29T00:30:13;15.20;99.90
66629;DHT22;53532;53.084;6.352;2022-07-29T00:32:39;15.10;99.90
66629;DHT22;53532;53.084;6.352;2022-07-29T00:35:05;15.20;99.90
66629;DHT22;53532;53.084;6.352;2022-07-29T00:37:50;15.20;99.90
66629;DHT22;53532;53.084;6.352;2022-07-29T00:40:17;15.20;99.90
66629;DHT22;53532;53.084;6.352;2022-07-29T00:42:43;15.20;99.90
66629;DHT22;53532;53.084;6.352;2022-07-29T00:45:09;15.20;99.90
66629;DHT22;53532;53.084;6.352;2022-07-29T00:47:35;15.10;99.90
66629;DHT22;53532;53.084;6.352;2022-07-29T00:50:01;15.20;99.90
66629;DHT22;53532;53.084;6.352;2022-07-29T00:52:27;15.20;99.90
66629;DHT22;53532;53.084;6.352;2022-07-29T00:54:53;15.10;99.90
66629;DHT22;53532;53.084;6.352;2022-07-29T00:57:20;15.10;99.90
66629;DHT22;53532;53.084;6.352;2022-07-29T00:59:46;15.10;99.90
66629;DHT22;53532;53.084;6.352;2022-07-29T01:02:11;15.10;99.90
66629;DHT22;53532;53.084;6.352;2022-07-29T01:04:37;15.10;99.90
66629;DHT22;53532;53.084;6.352;2022-07-29T01:07:04;15.10;99.90
66629;DHT22;53532;53.084;6.352;2022-07-29T01:09:31;15.10;99.90
66629;DHT22;53532;53.084;6.352;2022-07-29T01:11:58;15.10;99.90
66629;DHT22;53532;53.084;6.352;2022-07-29T01:14:26;15.10;99.90
66629;DHT22;53532;53.084;6.352;2022-07-29T01:16:59;15.00;99.90
66629;DHT22;53532;53.084;6.352;2022-07-29T01:19:43;15.00;99.90
66629;DHT22;53532;53.084;6.352;2022-07-29T01:22:25;15.00;99.90
66629;DHT22;53532;53.084;6.352;2022-07-29T01:25:05;15.00;99.90
66629;DHT22;53532;53.084;6.352;2022-07-29T01:27:45;14.90;99.90
66629;DHT22;53532;53.084;6.352;2022-07-29T01:30:14;14.90;99.90
66629;DHT22;53532;53.084;6.352;2022-07-29T01:32:41;14.80;99.90
66629;DHT22;53532;53.084;6.352;2022-07-29T01:35:12;14.80;99.90
66629;DHT22;53532;53.084;6.352;2022-07-29T01:37:45;14.80;99.90
66629;DHT22;53532;53.084;6.352;2022-07-29T01:40:19;14.70;99.90
66629;DHT22;53532;53.084;6.352;2022-07-29T01:42:48;14.70;99.90
66629;DHT22;53532;53.084;6.352;2022-07-29T01:45:20;14.70;99.90
66629;DHT22;53532;53.084;6.352;2022-07-29T01:48:02;14.70;99.90
66629;DHT22;53532;53.084;6.352;2022-07-29T01:50:30;14.70;99.90
66629;DHT22;53532;53.084;6.352;2022-07-29T01:53:00;14.60;99.90
66629;DHT22;53532;53.084;6.352;2022-07-29T01:55:28;14.70;99.90
66629;DHT22;53532;53.084;6.352;2022-07-29T01:57:57;14.70;99.90
66629;DHT22;53532;53.084;6.352;2022-07-29T02:00:25;14.80;99.90
66629;DHT22;53532;53.084;6.352;2022-07-29T02:02:53;14.70;99.90
66629;DHT22;53532;53.084;6.352;2022-07-29T02:05:21;14.70;99.90
66629;DHT22;53532;53.084;6.352;2022-07-29T02:07:49;14.80;99.90
66629;DHT22;53532;53.084;6.352;2022-07-29T02:10:20;14.80;99.90
66629;DHT22;53532;53.084;6.352;2022-07-29T02:12:48;14.80;99.90
66629;DHT22;53532;53.084;6.352;2022-07-29T02:15:16;14.80;99.90
66629;DHT22;53532;53.084;6.352;2022-07-29T02:17:47;14.80;99.90
66629;DHT22;53532;53.084;6.352;2022-07-29T02:20:14;14.80;99.90
66629;DHT22;53532;53.084;6.352;2022-07-29T02:22:41;14.90;99.90
66629;DHT22;53532;53.084;6.352;2022-07-29T02:25:10;14.90;99.90
66629;DHT22;53532;53.084;6.352;2022-07-29T02:27:38;14.80;99.90
66629;DHT22;53532;53.084;6.352;2022-07-29T02:30:06;14.90;99.90
66629;DHT22;53532;53.084;6.352;2022-07-29T02:32:34;14.90;99.90
66629;DHT22;53532;53.084;6.352;2022-07-29T02:35:03;14.90;99.90
66629;DHT22;53532;53.084;6.352;2022-07-29T02:37:30;14.90;99.90
66629;DHT22;53532;53.084;6.352;2022-07-29T02:39:58;14.90;99.90
66629;DHT22;53532;53.084;6.352;2022-07-29T02:42:26;14.90;99.90
66629;DHT22;53532;53.084;6.352;2022-07-29T02:44:53;14.90;99.90
66629;DHT22;53532;53.084;6.352;2022-07-29T02:47:21;14.90;99.90
66629;DHT22;53532;53.084;6.352;2022-07-29T02:49:53;14.90;99.90
66629;DHT22;53532;53.084;6.352;2022-07-29T02:52:27;14.90;99.90
66629;DHT22;53532;53.084;6.352;2022-07-29T02:54:56;14.90;99.90
66629;DHT22;53532;53.084;6.352;2022-07-29T02:57:31;14.90;99.90
66629;DHT22;53532;53.084;6.352;2022-07-29T03:00:02;14.90;99.90
66629;DHT22;53532;53.084;6.352;2022-07-29T03:02:33;14.90;99.90
66629;DHT22;53532;53.084;6.352;2022-07-29T03:05:00;14.90;99.90
66629;DHT22;53532;53.084;6.352;2022-07-29T03:07:29;14.90;99.90
66629;DHT22;53532;53.084;6.352;2022-07-29T03:09:55;14.90;99.90
66629;DHT22;53532;53.084;6.352;2022-07-29T03:12:21;14.90;99.90
66629;DHT22;53532;53.084;6.352;2022-07-29T03:14:48;14.90;99.90
66629;DHT22;53532;53.084;6.352;2022-07-29T03:17:14;14.90;99.90
66629;DHT22;53532;53.084;6.352;2022-07-29T03:19:40;14.90;99.90
66629;DHT22;53532;53.084;6.352;2022-07-29T03:22:07;15.00;99.90
66629;DHT22;53532;53.084;6.352;2022-07-29T03:24:36;15.00;99.90
66629;DHT22;53532;53.084;6.352;2022-07-29T03:27:02;15.00;99.90
66629;DHT22;53532;53.084;6.352;2022-07-29T03:29:28;15.00;99.90
66629;DHT22;53532;53.084;6.352;2022-07-29T03:31:54;15.00;99.90
66629;DHT22;53532;53.084;6.352;2022-07-29T03:34:20;15.10;99.90
66629;DHT22;53532;53.084;6.352;2022-07-29T03:36:46;15.00;99.90
66629;DHT22;53532;53.084;6.352;2022-07-29T03:39:15;15.10;99.90
66629;DHT22;53532;53.084;6.352;2022-07-29T03:41:45;15.10;99.90
66629;DHT22;53532;53.084;6.352;2022-07-29T03:44:12;15.10;99.90
66629;DHT22;53532;53.084;6.352;2022-07-29T03:46:39;15.10;99.90
66629;DHT22;53532;53.084;6.352;2022-07-29T03:49:08;15.10;99.90
66629;DHT22;53532;53.084;6.352;2022-07-29T03:51:36;15.10;99.90
66629;DHT22;53532;53.084;6.352;2022-07-29T03:54:02;15.10;99.90
66629;DHT22;53532;53.084;6.352;2022-07-29T03:56:29;15.10;99.90
66629;DHT22;53532;53.084;6.352;2022-07-29T03:58:56;15.10;99.90
66629;DHT22;53532;53.084;6.352;2022-07-29T04:01:22;15.00;99.90
66629;DHT22;53532;53.084;6.352;2022-07-29T04:03:49;15.00;99.90
66629;DHT22;53532;53.084;6.352;2022-07-29T04:06:15;15.00;99.90
66629;DHT22;53532;53.084;6.352;2022-07-29T04:08:40;15.00;99.90
66629;DHT22;53532;53.084;6.352;2022-07-29T04:11:06;15.00;99.90
66629;DHT22;53532;53.084;6.352;2022-07-29T04:13:32;15.00;99.90
66629;DHT22;53532;53.084;6.352;2022-07-29T04:16:00;15.00;99.90
66629;DHT22;53532;53.084;6.352;2022-07-29T04:18:25;15.00;99.90
66629;DHT22;53532;53.084;6.352;2022-07-29T04:20:51;15.00;99.90
66629;DHT22;53532;53.084;6.352;2022-07-29T04:23:17;14.90;99.90
66629;DHT22;53532;53.084;6.352;2022-07-29T04:25:43;14.90;99.90
66629;DHT22;53532;53.084;6.352;2022-07-29T04:28:10;14.90;99.90
66629;DHT22;53532;53.084;6.352;2022-07-29T04:30:36;14.90;99.90
66629;DHT22;53532;53.084;6.352;2022-07-29T04:33:06;14.90;99.90
66629;DHT22;53532;53.084;6.352;2022-07-29T04:35:34;14.90;99.90
66629;DHT22;53532;53.084;6.352;2022-07-29T04:38:00;14.90;99.90
66629;DHT22;53532;53.084;6.352;2022-07-29T04:40:27;14.90;99.90
66629;DHT22;53532;53.084;6.352;2022-07-29T04:42:53;14.90;99.90
66629;DHT22;53532;53.084;6.352;2022-07-29T04:45:19;14.90;99.90
66629;DHT22;53532;53.084;6.352;2022-07-29T04:47:45;15.00;99.90
66629;DHT22;53532;53.084;6.352;2022-07-29T04:50:12;15.00;99.90
66629;DHT22;53532;53.084;6.352;2022-07-29T04:52:38;15.00;99.90
66629;DHT22;53532;53.084;6.352;2022-07-29T04:55:08;15.00;99.90
66629;DHT22;53532;53.084;6.352;2022-07-29T04:57:34;15.00;99.90
66629;DHT22;53532;53.084;6.352;2022-07-29T04:59:59;15.00;99.90
66629;DHT22;53532;53.084;6.352;2022-07-29T05:02:25;15.10;99.90
66629;DHT22;53532;53.084;6.352;2022-07-29T05:04:51;15.10;99.90
66629;DHT22;53532;53.084;6.352;2022-07-29T05:07:19;15.10;99.90
66629;DHT22;53532;53.084;6.352;2022-07-29T05:09:45;15.10;99.90
66629;DHT22;53532;53.084;6.352;2022-07-29T05:12:11;15.20;99.90
66629;DHT22;53532;53.084;6.352;2022-07-29T05:14:37;15.20;99.90
66629;DHT22;53532;53.084;6.352;2022-07-29T05:17:03;15.30;99.90
66629;DHT22;53532;53.084;6.352;2022-07-29T05:19:29;15.30;99.90
66629;DHT22;53532;53.084;6.352;2022-07-29T05:21:55;15.40;99.90
66629;DHT22;53532;53.084;6.352;2022-07-29T05:24:22;15.40;99.90
66629;DHT22;53532;53.084;6.352;2022-07-29T05:26:48;15.50;99.90
66629;DHT22;53532;53.084;6.352;2022-07-29T05:29:14;15.50;99.90
66629;DHT22;53532;53.084;6.352;2022-07-29T05:31:39;15.50;99.90
66629;DHT22;53532;53.084;6.352;2022-07-29T05:34:05;15.60;99.90
66629;DHT22;53532;53.084;6.352;2022-07-29T05:36:31;15.60;99.90
66629;DHT22;53532;53.084;6.352;2022-07-29T05:38:57;15.70;99.90
66629;DHT22;53532;53.084;6.352;2022-07-29T05:41:24;15.70;99.90
66629;DHT22;53532;53.084;6.352;2022-07-29T05:43:50;15.70;99.90
66629;DHT22;53532;53.084;6.352;2022-07-29T05:46:16;15.80;99.90
66629;DHT22;53532;53.084;6.352;2022-07-29T05:48:42;15.80;99.90
66629;DHT22;53532;53.084;6.352;2022-07-29T05:51:08;15.90;99.90
66629;DHT22;53532;53.084;6.352;2022-07-29T05:53:34;15.90;99.90
66629;DHT22;53532;53.084;6.352;2022-07-29T05:56:03;16.00;99.90
66629;DHT22;53532;53.084;6.352;2022-07-29T05:58:30;16.10;99.90
66629;DHT22;53532;53.084;6.352;2022-07-29T06:00:56;16.20;99.90
66629;DHT22;53532;53.084;6.352;2022-07-29T06:03:24;16.20;99.90
66629;DHT22;53532;53.084;6.352;2022-07-29T06:05:50;16.30;99.90
66629;DHT22;53532;53.084;6.352;2022-07-29T06:08:16;16.40;99.90
66629;DHT22;53532;53.084;6.352;2022-07-29T06:10:43;16.50;99.90
66629;DHT22;53532;53.084;6.352;2022-07-29T06:13:08;16.50;99.90
66629;DHT22;53532;53.084;6.352;2022-07-29T06:15:36;16.60;99.90
66629;DHT22;53532;53.084;6.352;2022-07-29T06:18:01;16.70;99.90
66629;DHT22;53532;53.084;6.352;2022-07-29T06:20:27;16.70;99.90
66629;DHT22;53532;53.084;6.352;2022-07-29T06:22:55;16.80;99.90
66629;DHT22;53532;53.084;6.352;2022-07-29T06:25:20;16.80;99.90
66629;DHT22;53532;53.084;6.352;2022-07-29T06:27:46;16.90;99.90
66629;DHT22;53532;53.084;6.352;2022-07-29T06:30:12;17.00;99.90
66629;DHT22;53532;53.084;6.352;2022-07-29T06:32:39;17.20;99.90
66629;DHT22;53532;53.084;6.352;2022-07-29T06:35:06;17.30;99.90
66629;DHT22;53532;53.084;6.352;2022-07-29T06:37:32;17.40;99.90
66629;DHT22;53532;53.084;6.352;2022-07-29T06:39:58;17.50;99.90
66629;DHT22;53532;53.084;6.352;2022-07-29T06:42:42;17.60;99.90
66629;DHT22;53532;53.084;6.352;2022-07-29T06:45:10;17.80;99.90
66629;DHT22;53532;53.084;6.352;2022-07-29T06:47:36;17.90;99.90
66629;DHT22;53532;53.084;6.352;2022-07-29T06:50:04;18.20;99.90
66629;DHT22;53532;53.084;6.352;2022-07-29T06:52:30;18.60;99.90
66629;DHT22;53532;53.084;6.352;2022-07-29T06:54:56;18.90;99.90
66629;DHT22;53532;53.084;6.352;2022-07-29T06:57:22;19.00;99.90
66629;DHT22;53532;53.084;6.352;2022-07-29T06:59:48;19.30;99.90
66629;DHT22;53532;53.084;6.352;2022-07-29T07:02:13;19.50;99.90
66629;DHT22;53532;53.084;6.352;2022-07-29T07:04:40;19.40;99.90
66629;DHT22;53532;53.084;6.352;2022-07-29T07:07:07;19.20;99.90
66629;DHT22;53532;53.084;6.352;2022-07-29T07:09:33;19.00;99.90
66629;DHT22;53532;53.084;6.352;2022-07-29T07:11:59;18.90;99.90
66629;DHT22;53532;53.084;6.352;2022-07-29T07:14:25;18.70;99.90
66629;DHT22;53532;53.084;6.352;2022-07-29T07:16:52;18.60;99.90
66629;DHT22;53532;53.084;6.352;2022-07-29T07:19:17;18.50;99.90
66629;DHT22;53532;53.084;6.352;2022-07-29T07:21:44;18.50;99.90
66629;DHT22;53532;53.084;6.352;2022-07-29T07:24:11;18.30;99.90
66629;DHT22;53532;53.084;6.352;2022-07-29T07:26:37;18.20;99.90
66629;DHT22;53532;53.084;6.352;2022-07-29T07:29:05;18.10;99.90
66629;DHT22;53532;53.084;6.352;2022-07-29T07:31:30;18.10;99.90
66629;DHT22;53532;53.084;6.352;2022-07-29T07:33:57;18.10;99.90
66629;DHT22;53532;53.084;6.352;2022-07-29T07:36:23;18.10;99.90
66629;DHT22;53532;53.084;6.352;2022-07-29T07:38:49;18.10;99.90
66629;DHT22;53532;53.084;6.352;2022-07-29T07:41:16;18.10;99.90
66629;DHT22;53532;53.084;6.352;2022-07-29T07:43:42;18.00;99.90
66629;DHT22;53532;53.084;6.352;2022-07-29T07:46:08;18.00;99.90
66629;DHT22;53532;53.084;6.352;2022-07-29T07:48:34;18.00;99.90
66629;DHT22;53532;53.084;6.352;2022-07-29T07:51:00;17.90;99.90
66629;DHT22;53532;53.084;6.352;2022-07-29T07:53:26;17.90;99.90
66629;DHT22;53532;53.084;6.352;2022-07-29T07:55:52;17.90;99.90
66629;DHT22;53532;53.084;6.352;2022-07-29T07:58:19;17.90;99.90
66629;DHT22;53532;53.084;6.352;2022-07-29T08:00:45;18.00;99.90
66629;DHT22;53532;53.084;6.352;2022-07-29T08:03:11;17.90;99.90
66629;DHT22;53532;53.084;6.352;2022-07-29T08:05:39;17.90;99.90
66629;DHT22;53532;53.084;6.352;2022-07-29T08:08:05;17.90;99.90
66629;DHT22;53532;53.084;6.352;2022-07-29T08:10:31;17.90;99.90
66629;DHT22;53532;53.084;6.352;2022-07-29T08:13:15;17.90;99.90
66629;DHT22;53532;53.084;6.352;2022-07-29T08:15:43;18.00;99.90
66629;DHT22;53532;53.084;6.352;2022-07-29T08:18:10;18.10;99.90
66629;DHT22;53532;53.084;6.352;2022-07-29T08:20:37;18.10;99.90
66629;DHT22;53532;53.084;6.352;2022-07-29T08:23:05;18.20;99.90
66629;DHT22;53532;53.084;6.352;2022-07-29T08:25:31;18.30;99.90
66629;DHT22;53532;53.084;6.352;2022-07-29T08:27:57;18.30;99.90
66629;DHT22;53532;53.084;6.352;2022-07-29T08:30:23;18.30;99.90
66629;DHT22;53532;53.084;6.352;2022-07-29T08:32:50;18.40;99.90
66629;DHT22;53532;53.084;6.352;2022-07-29T08:35:18;18.50;99.90
66629;DHT22;53532;53.084;6.352;2022-07-29T08:37:44;18.60;99.90
66629;DHT22;53532;53.084;6.352;2022-07-29T08:40:10;18.60;99.90
66629;DHT22;53532;53.084;6.352;2022-07-29T08:42:36;18.60;99.90
66629;DHT22;53532;53.084;6.352;2022-07-29T08:45:02;18.70;99.90
66629;DHT22;53532;53.084;6.352;2022-07-29T08:47:28;18.80;99.90
66629;DHT22;53532;53.084;6.352;2022-07-29T08:49:56;18.80;99.90
66629;DHT22;53532;53.084;6.352;2022-07-29T08:52:25;18.90;99.90
66629;DHT22;53532;53.084;6.352;2022-07-29T08:54:52;19.10;99.90
66629;DHT22;53532;53.084;6.352;2022-07-29T08:57:18;19.30;99.90
66629;DHT22;53532;53.084;6.352;2022-07-29T08:59:46;19.40;99.90
66629;DHT22;53532;53.084;6.352;2022-07-29T09:02:18;19.50;99.90
66629;DHT22;53532;53.084;6.352;2022-07-29T09:04:44;19.60;99.90
66629;DHT22;53532;53.084;6.352;2022-07-29T09:07:15;19.80;99.90
66629;DHT22;53532;53.084;6.352;2022-07-29T09:09:41;19.90;99.90
66629;DHT22;53532;53.084;6.352;2022-07-29T09:12:07;20.10;99.90
66629;DHT22;53532;53.084;6.352;2022-07-29T09:14:33;20.20;99.90
66629;DHT22;53532;53.084;6.352;2022-07-29T09:16:59;20.40;97.60
66629;DHT22;53532;53.084;6.352;2022-07-29T09:19:27;20.50;95.90
66629;DHT22;53532;53.084;6.352;2022-07-29T09:21:55;20.60;97.30
66629;DHT22;53532;53.084;6.352;2022-07-29T09:27:17;20.90;97.20
66629;DHT22;53532;53.084;6.352;2022-07-29T09:29:44;21.00;99.90
66629;DHT22;53532;53.084;6.352;2022-07-29T09:32:10;21.00;97.60
66629;DHT22;53532;53.084;6.352;2022-07-29T09:34:36;21.00;97.40
66629;DHT22;53532;53.084;6.352;2022-07-29T09:37:03;21.00;96.10
66629;DHT22;53532;53.084;6.352;2022-07-29T09:39:31;21.00;94.40
66629;DHT22;53532;53.084;6.352;2022-07-29T09:41:59;21.00;97.90
66629;DHT22;53532;53.084;6.352;2022-07-29T09:44:26;21.00;95.60
66629;DHT22;53532;53.084;6.352;2022-07-29T09:46:56;20.90;95.20
66629;DHT22;53532;53.084;6.352;2022-07-29T09:49:23;20.90;95.10
66629;DHT22;53532;53.084;6.352;2022-07-29T09:51:59;20.90;95.10
66629;DHT22;53532;53.084;6.352;2022-07-29T09:54:26;20.90;95.40
66629;DHT22;53532;53.084;6.352;2022-07-29T09:56:55;20.90;93.20
66629;DHT22;53532;53.084;6.352;2022-07-29T09:59:21;21.00;91.60
66629;DHT22;53532;53.084;6.352;2022-07-29T10:01:49;21.00;91.60
66629;DHT22;53532;53.084;6.352;2022-07-29T10:04:15;21.10;92.10
66629;DHT22;53532;53.084;6.352;2022-07-29T10:06:56;21.30;91.20
66629;DHT22;53532;53.084;6.352;2022-07-29T10:09:22;21.50;90.30
66629;DHT22;53532;53.084;6.352;2022-07-29T10:12:09;21.60;90.60
66629;DHT22;53532;53.084;6.352;2022-07-29T10:14:36;21.60;85.10
66629;DHT22;53532;53.084;6.352;2022-07-29T10:17:03;21.50;82.70
66629;DHT22;53532;53.084;6.352;2022-07-29T10:19:31;21.40;81.80
66629;DHT22;53532;53.084;6.352;2022-07-29T10:21:58;21.20;86.80
66629;DHT22;53532;53.084;6.352;2022-07-29T10:24:25;21.20;90.00
66629;DHT22;53532;53.084;6.352;2022-07-29T10:26:52;21.30;85.50
66629;DHT22;53532;53.084;6.352;2022-07-29T10:29:20;21.20;86.20
66629;DHT22;53532;53.084;6.352;2022-07-29T10:31:52;21.30;87.90
66629;DHT22;53532;53.084;6.352;2022-07-29T10:34:26;21.40;90.20
66629;DHT22;53532;53.084;6.352;2022-07-29T10:37:03;21.60;86.40
66629;DHT22;53532;53.084;6.352;2022-07-29T10:39:39;21.70;84.00
66629;DHT22;53532;53.084;6.352;2022-07-29T10:42:16;21.90;82.30
66629;DHT22;53532;53.084;6.352;2022-07-29T10:44:44;21.90;81.50
66629;DHT22;53532;53.084;6.352;2022-07-29T10:47:20;22.00;83.70
66629;DHT22;53532;53.084;6.352;2022-07-29T10:49:56;22.20;79.50
66629;DHT22;53532;53.084;6.352;2022-07-29T10:52:22;22.30;77.20
66629;DHT22;53532;53.084;6.352;2022-07-29T10:54:50;22.40;75.20
66629;DHT22;53532;53.084;6.352;2022-07-29T10:57:23;22.50;72.70
66629;DHT22;53532;53.084;6.352;2022-07-29T11:00:27;22.50;72.20
66629;DHT22;53532;53.084;6.352;2022-07-29T11:02:54;22.70;71.40
66629;DHT22;53532;53.084;6.352;2022-07-29T11:05:22;22.80;71.50
66629;DHT22;53532;53.084;6.352;2022-07-29T11:10:53;23.00;71.50
66629;DHT22;53532;53.084;6.352;2022-07-29T11:13:46;23.00;71.90
66629;DHT22;53532;53.084;6.352;2022-07-29T11:16:14;23.00;72.40
66629;DHT22;53532;53.084;6.352;2022-07-29T11:21:41;23.20;72.70
66629;DHT22;53532;53.084;6.352;2022-07-29T11:24:14;23.30;71.70
66629;DHT22;53532;53.084;6.352;2022-07-29T11:26:41;23.40;68.90
66629;DHT22;53532;53.084;6.352;2022-07-29T11:29:16;23.50;68.80
66629;DHT22;53532;53.084;6.352;2022-07-29T11:31:46;23.70;68.60
66629;DHT22;53532;53.084;6.352;2022-07-29T11:34:32;23.80;67.10
66629;DHT22;53532;53.084;6.352;2022-07-29T11:37:17;24.00;66.50
66629;DHT22;53532;53.084;6.352;2022-07-29T11:39:45;24.00;65.60
66629;DHT22;53532;53.084;6.352;2022-07-29T11:42:44;24.00;65.00
66629;DHT22;53532;53.084;6.352;2022-07-29T11:45:11;24.10;66.20
66629;DHT22;53532;53.084;6.352;2022-07-29T11:47:46;24.00;65.80
66629;DHT22;53532;53.084;6.352;2022-07-29T11:50:16;24.00;66.40
66629;DHT22;53532;53.084;6.352;2022-07-29T11:52:43;23.90;66.30
66629;DHT22;53532;53.084;6.352;2022-07-29T11:55:13;23.80;66.30
66629;DHT22;53532;53.084;6.352;2022-07-29T11:57:46;23.80;66.10
66629;DHT22;53532;53.084;6.352;2022-07-29T12:00:24;23.70;65.20
66629;DHT22;53532;53.084;6.352;2022-07-29T12:02:52;23.70;65.80
66629;DHT22;53532;53.084;6.352;2022-07-29T12:05:18;23.70;66.40
66629;DHT22;53532;53.084;6.352;2022-07-29T12:07:44;23.90;65.70
66629;DHT22;53532;53.084;6.352;2022-07-29T12:10:11;24.10;64.80
66629;DHT22;53532;53.084;6.352;2022-07-29T12:12:37;24.30;64.30
66629;DHT22;53532;53.084;6.352;2022-07-29T12:15:15;24.50;63.00
66629;DHT22;53532;53.084;6.352;2022-07-29T12:17:43;24.80;63.20
66629;DHT22;53532;53.084;6.352;2022-07-29T12:20:10;25.00;61.50
66629;DHT22;53532;53.084;6.352;2022-07-29T12:22:39;25.20;60.70
66629;DHT22;53532;53.084;6.352;2022-07-29T12:25:07;25.40;60.90
66629;DHT22;53532;53.084;6.352;2022-07-29T12:27:34;25.60;60.90
66629;DHT22;53532;53.084;6.352;2022-07-29T12:30:02;25.80;59.90
66629;DHT22;53532;53.084;6.352;2022-07-29T12:32:33;25.90;60.10
66629;DHT22;53532;53.084;6.352;2022-07-29T12:35:01;25.90;59.40
66629;DHT22;53532;53.084;6.352;2022-07-29T12:37:29;26.00;58.90
66629;DHT22;53532;53.084;6.352;2022-07-29T12:39:54;26.10;57.60
66629;DHT22;53532;53.084;6.352;2022-07-29T12:42:20;26.30;57.60
66629;DHT22;53532;53.084;6.352;2022-07-29T12:44:47;26.40;56.90
66629;DHT22;53532;53.084;6.352;2022-07-29T12:47:14;26.60;56.50
66629;DHT22;53532;53.084;6.352;2022-07-29T12:49:40;26.70;56.70
66629;DHT22;53532;53.084;6.352;2022-07-29T12:52:34;26.70;55.80
66629;DHT22;53532;53.084;6.352;2022-07-29T12:55:00;26.70;55.30
66629;DHT22;53532;53.084;6.352;2022-07-29T12:57:27;26.40;54.00
66629;DHT22;53532;53.084;6.352;2022-07-29T13:00:09;26.20;53.40
66629;DHT22;53532;53.084;6.352;2022-07-29T13:02:37;26.10;53.40
66629;DHT22;53532;53.084;6.352;2022-07-29T13:05:05;26.00;53.20
66629;DHT22;53532;53.084;6.352;2022-07-29T13:07:33;25.90;53.10
66629;DHT22;53532;53.084;6.352;2022-07-29T13:10:13;25.90;52.60
66629;DHT22;53532;53.084;6.352;2022-07-29T13:12:39;26.00;52.10
66629;DHT22;53532;53.084;6.352;2022-07-29T13:15:25;26.00;52.60
66629;DHT22;53532;53.084;6.352;2022-07-29T13:17:51;26.10;53.20
66629;DHT22;53532;53.084;6.352;2022-07-29T13:20:17;26.10;52.10
66629;DHT22;53532;53.084;6.352;2022-07-29T13:22:47;26.20;52.10
66629;DHT22;53532;53.084;6.352;2022-07-29T13:25:13;26.30;52.20
66629;DHT22;53532;53.084;6.352;2022-07-29T13:27:39;26.30;52.20
66629;DHT22;53532;53.084;6.352;2022-07-29T13:30:07;26.30;52.20
66629;DHT22;53532;53.084;6.352;2022-07-29T13:32:34;26.30;52.40
66629;DHT22;53532;53.084;6.352;2022-07-29T13:35:02;26.30;52.60
66629;DHT22;53532;53.084;6.352;2022-07-29T13:37:28;26.40;52.50
66629;DHT22;53532;53.084;6.352;2022-07-29T13:39:56;26.40;51.50
66629;DHT22;53532;53.084;6.352;2022-07-29T13:42:22;26.40;51.40
66629;DHT22;53532;53.084;6.352;2022-07-29T13:44:48;26.10;54.30
66629;DHT22;53532;53.084;6.352;2022-07-29T13:47:16;26.10;53.60
66629;DHT22;53532;53.084;6.352;2022-07-29T13:49:42;26.00;52.80
66629;DHT22;53532;53.084;6.352;2022-07-29T13:52:08;26.00;52.00
66629;DHT22;53532;53.084;6.352;2022-07-29T13:54:33;26.20;51.10
66629;DHT22;53532;53.084;6.352;2022-07-29T13:57:04;26.40;50.70
66629;DHT22;53532;53.084;6.352;2022-07-29T13:59:30;26.60;50.50
66629;DHT22;53532;53.084;6.352;2022-07-29T14:01:56;26.80;50.40
66629;DHT22;53532;53.084;6.352;2022-07-29T14:04:22;26.90;50.50
66629;DHT22;53532;53.084;6.352;2022-07-29T14:06:51;27.00;50.50
66629;DHT22;53532;53.084;6.352;2022-07-29T14:09:17;27.00;50.50
66629;DHT22;53532;53.084;6.352;2022-07-29T14:11:43;27.00;50.20
66629;DHT22;53532;53.084;6.352;2022-07-29T14:14:10;27.00;50.00
66629;DHT22;53532;53.084;6.352;2022-07-29T14:16:36;26.80;50.70
66629;DHT22;53532;53.084;6.352;2022-07-29T14:19:02;26.70;50.70
66629;DHT22;53532;53.084;6.352;2022-07-29T14:21:28;26.60;51.20
66629;DHT22;53532;53.084;6.352;2022-07-29T14:23:54;26.60;50.30
66629;DHT22;53532;53.084;6.352;2022-07-29T14:26:20;26.50;50.10
66629;DHT22;53532;53.084;6.352;2022-07-29T14:28:46;26.60;51.20
66629;DHT22;53532;53.084;6.352;2022-07-29T14:31:14;26.70;50.40
66629;DHT22;53532;53.084;6.352;2022-07-29T14:33:40;26.70;49.90
66629;DHT22;53532;53.084;6.352;2022-07-29T14:36:06;26.60;50.50
66629;DHT22;53532;53.084;6.352;2022-07-29T14:38:31;26.50;50.80
66629;DHT22;53532;53.084;6.352;2022-07-29T14:40:57;26.50;51.40
66629;DHT22;53532;53.084;6.352;2022-07-29T14:43:23;26.50;51.10
66629;DHT22;53532;53.084;6.352;2022-07-29T14:45:49;26.40;51.20
66629;DHT22;53532;53.084;6.352;2022-07-29T14:48:16;26.30;50.80
66629;DHT22;53532;53.084;6.352;2022-07-29T14:50:42;26.30;50.30
66629;DHT22;53532;53.084;6.352;2022-07-29T14:53:08;26.20;50.60
66629;DHT22;53532;53.084;6.352;2022-07-29T14:55:33;26.30;50.50
66629;DHT22;53532;53.084;6.352;2022-07-29T14:57:59;26.50;50.20
66629;DHT22;53532;53.084;6.352;2022-07-29T15:00:26;26.60;50.30
66629;DHT22;53532;53.084;6.352;2022-07-29T15:02:52;26.50;50.10
66629;DHT22;53532;53.084;6.352;2022-07-29T15:05:19;26.30;50.70
66629;DHT22;53532;53.084;6.352;2022-07-29T15:07:45;26.30;51.20
66629;DHT22;53532;53.084;6.352;2022-07-29T15:10:10;26.30;51.50
66629;DHT22;53532;53.084;6.352;2022-07-29T15:12:36;26.40;51.30
66629;DHT22;53532;53.084;6.352;2022-07-29T15:15:02;26.30;50.60
66629;DHT22;53532;53.084;6.352;2022-07-29T15:17:28;26.20;51.20
66629;DHT22;53532;53.084;6.352;2022-07-29T15:19:54;26.10;51.60
66629;DHT22;53532;53.084;6.352;2022-07-29T15:22:22;26.00;52.20
66629;DHT22;53532;53.084;6.352;2022-07-29T15:24:47;26.00;53.00
66629;DHT22;53532;53.084;6.352;2022-07-29T15:27:13;25.90;52.70
66629;DHT22;53532;53.084;6.352;2022-07-29T15:29:39;25.70;51.70
66629;DHT22;53532;53.084;6.352;2022-07-29T15:32:06;25.70;52.60
66629;DHT22;53532;53.084;6.352;2022-07-29T15:34:32;25.80;52.60
66629;DHT22;53532;53.084;6.352;2022-07-29T15:36:57;26.00;53.10
66629;DHT22;53532;53.084;6.352;2022-07-29T15:39:24;26.30;52.90
66629;DHT22;53532;53.084;6.352;2022-07-29T15:41:50;26.40;52.50
66629;DHT22;53532;53.084;6.352;2022-07-29T15:44:16;26.50;52.10